sensor_id;sensor_type;location;lat;lon;timestamp;pressure;altitude;pressure_sealevel;temperature;humidity
3206;BME280;1615;53.602;11.418;2023-11-19T00:00:21;100792.91;;;7.01;100.00
3206;BME280;1615;53.602;11.418;2023-11-19T00:02:46;100743.28;;;6.79;100.00
3206;BME280;1615;53.602;11.418;2023-11-19T00:05:12;100780.94;;;7.07;100.00
3206;BME280;1615;53.602;11.418;2023-11-19T00:07:39;100787.19;;;6.97;100.00
3206;BME280;1615;53.602;11.418;2023-11-19T00:10:12;100670.47;;;6.39;100.00
3206;BME280;1615;53.602;11.418;2023-11-19T00:12:39;100754.50;;;7.02;100.00
3206;BME280;1615;53.602;11.418;2023-11-19T00:15:05;100680.59;;;6.64;100.00
3206;BME280;1615;53.602;11.418;2023-11-19T00:17:31;100735.44;;;7.07;100.00
3206;BME280;1615;53.602;11.418;2023-11-19T00:19:57;100713.34;;;7.04;100.00
3206;BME280;1615;53.602;11.418;2023-11-19T00:22:22;100726.44;;;7.12;100.00
3206;BME280;1615;53.602;11.418;2023-11-19T00:24:47;100695.91;;;7.00;100.00
3206;BME280;1615;53.602;11.418;2023-11-19T00:27:13;100708.44;;;7.01;100.00
3206;BME280;1615;53.602;11.418;2023-11-19T00:29:41;100694.53;;;6.87;100.00
3206;BME280;1615;53.602;11.418;2023-11-19T00:32:07;100712.25;;;7.00;100.00
3206;BME280;1615;53.602;11.418;2023-11-19T00:34:32;100596.66;;;6.31;100.00
3206;BME280;1615;53.602;11.418;2023-11-19T00:36:58;100680.09;;;7.02;100.00
3206;BME280;1615;53.602;11.418;2023-11-19T00:39:23;100668.66;;;6.95;100.00
3206;BME280;1615;53.602;11.418;2023-11-19T00:41:48;100643.56;;;6.93;100.00
3206;BME280;1615;53.602;11.418;2023-11-19T00:44:14;100619.06;;;6.88;100.00
3206;BME280;1615;53.602;11.418;2023-11-19T00:46:39;100644.66;;;7.17;100.00
3206;BME280;1615;53.602;11.418;2023-11-19T00:49:05;100613.03;;;6.96;100.00
3206;BME280;1615;53.602;11.418;2023-11-19T00:51:30;100624.22;;;7.09;100.00
3206;BME280;1615;53.602;11.418;2023-11-19T00:53:57;100601.63;;;6.99;100.00
3206;BME280;1615;53.602;11.418;2023-11-19T00:56:22;100614.66;;;7.12;100.00
3206;BME280;1615;53.602;11.418;2023-11-19T00:58:48;100609.78;;;7.04;100.00
3206;BME280;1615;53.602;11.418;2023-11-19T01:01:13;100613.03;;;7.06;100.00
3206;BME280;1615;53.602;11.418;2023-11-19T01:03:38;100568.63;;;6.90;100.00
3206;BME280;1615;53.602;11.418;2023-11-19T01:06:04;100598.31;;;7.17;100.00
3206;BME280;1615;53.602;11.418;2023-11-19T01:08:30;100607.03;;;7.19;100.00
3206;BME280;1615;53.602;11.418;2023-11-19T01:10:55;100578.72;;;7.05;100.00
3206;BME280;1615;53.602;11.418;2023-11-19T01:13:20;100578.16;;;7.08;100.00
3206;BME280;1615;53.602;11.418;2023-11-19T01:15:46;100586.06;;;7.09;100.00
3206;BME280;1615;53.602;11.418;2023-11-19T01:18:12;100592.59;;;7.18;100.00
3206;BME280;1615;53.602;11.418;2023-11-19T01:20:38;100572.91;;;7.31;100.00
3206;BME280;1615;53.602;11.418;2023-11-19T01:23:03;100550.88;;;7.18;100.00
3206;BME280;1615;53.602;11.418;2023-11-19T01:25:29;100537.81;;;7.10;100.00
3206;BME280;1615;53.602;11.418;2023-11-19T01:27:54;100544.34;;;7.14;100.00
3206;BME280;1615;53.602;11.418;2023-11-19T01:30:22;100532.34;;;7.20;100.00
3206;BME280;1615;53.602;11.418;2023-11-19T01:32:48;100480.06;;;6.98;100.00
3206;BME280;1615;53.602;11.418;2023-11-19T01:35:13;100436.53;;;6.83;100.00
3206;BME280;1615;53.602;11.418;2023-11-19T01:37:39;100479.78;;;7.04;100.00
3206;BME280;1615;53.602;11.418;2023-11-19T01:40:05;100511.59;;;7.29;100.00
3206;BME280;1615;53.602;11.418;2023-11-19T01:42:39;100501.53;;;7.19;100.00
3206;BME280;1615;53.602;11.418;2023-11-19T01:45:05;100482.47;;;7.09;100.00
3206;BME280;1615;53.602;11.418;2023-11-19T01:47:33;100499.66;;;7.20;100.00
3206;BME280;1615;53.602;11.418;2023-11-19T01:50:00;100264.13;;;5.74;100.00
3206;BME280;1615;53.602;11.418;2023-11-19T01:52:26;100454.97;;;7.06;100.00
3206;BME280;1615;53.602;11.418;2023-11-19T01:54:53;100425.84;;;6.96;100.00
3206;BME280;1615;53.602;11.418;2023-11-19T01:57:19;100422.00;;;7.02;100.00
3206;BME280;1615;53.602;11.418;2023-11-19T01:59:46;100392.38;;;6.81;100.00
3206;BME280;1615;53.602;11.418;2023-11-19T02:02:12;100452.22;;;7.11;100.00
3206;BME280;1615;53.602;11.418;2023-11-19T02:04:38;100449.16;;;7.22;100.00
3206;BME280;1615;53.602;11.418;2023-11-19T02:07:04;100369.81;;;6.75;100.00
3206;BME280;1615;53.602;11.418;2023-11-19T02:09:29;100421.13;;;7.22;100.00
3206;BME280;1615;53.602;11.418;2023-11-19T02:11:55;100397.16;;;7.14;100.00
3206;BME280;1615;53.602;11.418;2023-11-19T02:14:25;100344.50;;;6.60;100.00
3206;BME280;1615;53.602;11.418;2023-11-19T02:16:51;100414.06;;;7.11;100.00
3206;BME280;1615;53.602;11.418;2023-11-19T02:19:19;100399.97;;;6.99;100.00
3206;BME280;1615;53.602;11.418;2023-11-19T02:21:44;100362.56;;;7.09;100.00
3206;BME280;1615;53.602;11.418;2023-11-19T02:24:12;100354.13;;;7.11;100.00
3206;BME280;1615;53.602;11.418;2023-11-19T02:29:16;100361.63;;;7.29;100.00
3206;BME280;1615;53.602;11.418;2023-11-19T02:31:42;100153.91;;;6.11;100.00
3206;BME280;1615;53.602;11.418;2023-11-19T02:34:10;100359.13;;;7.37;100.00
3206;BME280;1615;53.602;11.418;2023-11-19T02:36:36;100367.56;;;7.41;100.00
3206;BME280;1615;53.602;11.418;2023-11-19T02:39:01;100336.63;;;7.17;100.00
3206;BME280;1615;53.602;11.418;2023-11-19T02:41:27;100236.91;;;6.67;100.00
3206;BME280;1615;53.602;11.418;2023-11-19T02:43:52;100346.34;;;7.33;100.00
3206;BME280;1615;53.602;11.418;2023-11-19T02:46:19;100348.53;;;7.36;100.00
3206;BME280;1615;53.602;11.418;2023-11-19T02:48:44;100338.38;;;7.41;100.00
3206;BME280;1615;53.602;11.418;2023-11-19T02:51:11;100330.44;;;7.45;100.00
3206;BME280;1615;53.602;11.418;2023-11-19T02:53:37;100313.56;;;7.43;100.00
3206;BME280;1615;53.602;11.418;2023-11-19T02:56:03;100300.47;;;7.45;100.00
3206;BME280;1615;53.602;11.418;2023-11-19T02:58:45;100296.06;;;7.49;100.00
3206;BME280;1615;53.602;11.418;2023-11-19T03:01:11;100268.88;;;7.39;100.00
3206;BME280;1615;53.602;11.418;2023-11-19T03:03:48;100253.09;;;7.36;100.00
3206;BME280;1615;53.602;11.418;2023-11-19T03:06:19;100269.31;;;7.51;100.00
3206;BME280;1615;53.602;11.418;2023-11-19T03:08:44;100266.66;;;7.41;100.00
3206;BME280;1615;53.602;11.418;2023-11-19T03:11:09;100253.09;;;7.36;100.00
3206;BME280;1615;53.602;11.418;2023-11-19T03:13:35;100209.06;;;7.19;100.00
3206;BME280;1615;53.602;11.418;2023-11-19T03:16:00;100240.44;;;7.50;100.00
3206;BME280;1615;53.602;11.418;2023-11-19T03:18:25;100070.63;;;6.54;100.00
3206;BME280;1615;53.602;11.418;2023-11-19T03:20:52;100233.72;;;7.37;100.00
3206;BME280;1615;53.602;11.418;2023-11-19T03:23:17;100149.28;;;6.99;100.00
3206;BME280;1615;53.602;11.418;2023-11-19T03:25:42;100217.13;;;7.34;100.00
3206;BME280;1615;53.602;11.418;2023-11-19T03:28:08;100199.97;;;7.33;100.00
3206;BME280;1615;53.602;11.418;2023-11-19T03:30:34;100154.97;;;7.02;100.00
3206;BME280;1615;53.602;11.418;2023-11-19T03:32:59;100203.44;;;7.39;100.00
3206;BME280;1615;53.602;11.418;2023-11-19T03:35:26;100178.97;;;7.29;100.00
3206;BME280;1615;53.602;11.418;2023-11-19T03:37:53;100191.09;;;7.46;100.00
3206;BME280;1615;53.602;11.418;2023-11-19T03:40:18;100176.25;;;7.29;100.00
3206;BME280;1615;53.602;11.418;2023-11-19T03:42:45;100177.00;;;7.39;100.00
3206;BME280;1615;53.602;11.418;2023-11-19T03:45:10;100161.88;;;7.23;100.00
3206;BME280;1615;53.602;11.418;2023-11-19T03:47:36;100138.28;;;7.09;100.00
3206;BME280;1615;53.602;11.418;2023-11-19T03:50:02;100148.44;;;7.32;100.00
3206;BME280;1615;53.602;11.418;2023-11-19T03:52:28;100145.94;;;7.35;100.00
3206;BME280;1615;53.602;11.418;2023-11-19T03:54:54;100149.81;;;7.29;100.00
3206;BME280;1615;53.602;11.418;2023-11-19T03:57:20;100135.75;;;7.46;100.00
3206;BME280;1615;53.602;11.418;2023-11-19T03:59:46;100122.50;;;7.34;100.00
3206;BME280;1615;53.602;11.418;2023-11-19T04:02:11;100133.88;;;7.41;100.00
3206;BME280;1615;53.602;11.418;2023-11-19T04:04:37;100123.84;;;7.37;100.00
3206;BME280;1615;53.602;11.418;2023-11-19T04:07:04;100020.97;;;6.67;100.00
3206;BME280;1615;53.602;11.418;2023-11-19T04:09:30;100125.59;;;7.51;100.00
3206;BME280;1615;53.602;11.418;2023-11-19T04:11:56;100120.59;;;7.35;100.00
3206;BME280;1615;53.602;11.418;2023-11-19T04:14:21;100093.91;;;7.32;100.00
3206;BME280;1615;53.602;11.418;2023-11-19T04:16:47;100089.03;;;7.29;100.00
3206;BME280;1615;53.602;11.418;2023-11-19T04:19:12;100030.97;;;7.05;100.00
3206;BME280;1615;53.602;11.418;2023-11-19T04:21:40;100108.66;;;7.54;100.00
3206;BME280;1615;53.602;11.418;2023-11-19T04:24:10;100098.38;;;7.46;100.00
3206;BME280;1615;53.602;11.418;2023-11-19T04:26:42;100065.25;;;7.34;100.00
3206;BME280;1615;53.602;11.418;2023-11-19T04:29:11;100059.50;;;7.12;100.00
3206;BME280;1615;53.602;11.418;2023-11-19T04:31:37;100041.00;;;7.09;100.00
3206;BME280;1615;53.602;11.418;2023-11-19T04:34:02;100052.16;;;7.36;100.00
3206;BME280;1615;53.602;11.418;2023-11-19T04:36:27;100060.84;;;7.38;100.00
3206;BME280;1615;53.602;11.418;2023-11-19T04:38:54;100057.19;;;7.48;100.00
3206;BME280;1615;53.602;11.418;2023-11-19T04:41:20;100072.06;;;7.60;100.00
3206;BME280;1615;53.602;11.418;2023-11-19T04:43:45;100062.47;;;7.63;100.00
3206;BME280;1615;53.602;11.418;2023-11-19T04:46:11;100064.03;;;7.69;100.00
3206;BME280;1615;53.602;11.418;2023-11-19T04:48:36;100047.47;;;7.65;100.00
3206;BME280;1615;53.602;11.418;2023-11-19T04:51:04;100034.63;;;7.66;100.00
3206;BME280;1615;53.602;11.418;2023-11-19T04:53:30;99985.91;;;7.36;100.00
3206;BME280;1615;53.602;11.418;2023-11-19T04:55:55;100033.16;;;7.73;100.00
3206;BME280;1615;53.602;11.418;2023-11-19T04:58:20;100054.38;;;8.00;100.00
3206;BME280;1615;53.602;11.418;2023-11-19T05:00:46;100032.06;;;7.93;100.00
3206;BME280;1615;53.602;11.418;2023-11-19T05:03:11;100034.94;;;7.83;100.00
3206;BME280;1615;53.602;11.418;2023-11-19T05:05:36;100033.84;;;7.84;100.00
3206;BME280;1615;53.602;11.418;2023-11-19T05:08:02;99989.91;;;7.62;100.00
3206;BME280;1615;53.602;11.418;2023-11-19T05:10:27;99956.88;;;7.45;100.00
3206;BME280;1615;53.602;11.418;2023-11-19T05:12:53;100042.38;;;7.77;100.00
3206;BME280;1615;53.602;11.418;2023-11-19T05:15:18;100029.47;;;7.83;100.00
3206;BME280;1615;53.602;11.418;2023-11-19T05:17:43;100020.03;;;7.94;100.00
3206;BME280;1615;53.602;11.418;2023-11-19T05:20:09;100027.59;;;8.02;100.00
3206;BME280;1615;53.602;11.418;2023-11-19T05:22:42;100029.63;;;8.10;100.00
3206;BME280;1615;53.602;11.418;2023-11-19T05:25:08;99800.78;;;6.79;100.00
3206;BME280;1615;53.602;11.418;2023-11-19T05:27:34;100017.56;;;8.16;100.00
3206;BME280;1615;53.602;11.418;2023-11-19T05:30:01;100010.56;;;8.28;100.00
3206;BME280;1615;53.602;11.418;2023-11-19T05:32:26;99996.19;;;8.23;100.00
3206;BME280;1615;53.602;11.418;2023-11-19T05:34:52;99965.09;;;8.00;100.00
3206;BME280;1615;53.602;11.418;2023-11-19T05:37:17;100011.31;;;8.34;100.00
3206;BME280;1615;53.602;11.418;2023-11-19T05:39:44;100009.59;;;8.38;100.00
3206;BME280;1615;53.602;11.418;2023-11-19T05:42:10;99996.03;;;8.33;100.00
3206;BME280;1615;53.602;11.418;2023-11-19T05:44:35;99991.69;;;8.32;100.00
3206;BME280;1615;53.602;11.418;2023-11-19T05:47:02;99942.63;;;8.08;100.00
3206;BME280;1615;53.602;11.418;2023-11-19T05:49:27;99979.56;;;8.38;100.00
3206;BME280;1615;53.602;11.418;2023-11-19T05:51:52;99982.63;;;8.50;100.00
3206;BME280;1615;53.602;11.418;2023-11-19T05:54:20;99965.13;;;8.51;100.00
3206;BME280;1615;53.602;11.418;2023-11-19T05:56:49;99870.91;;;8.03;100.00
3206;BME280;1615;53.602;11.418;2023-11-19T05:59:14;99975.59;;;8.62;100.00
3206;BME280;1615;53.602;11.418;2023-11-19T06:01:43;99954.81;;;8.48;100.00
3206;BME280;1615;53.602;11.418;2023-11-19T06:04:08;99973.41;;;8.46;100.00
3206;BME280;1615;53.602;11.418;2023-11-19T06:06:33;99902.94;;;7.97;100.00
3206;BME280;1615;53.602;11.418;2023-11-19T06:08:59;99948.06;;;8.27;100.00
3206;BME280;1615;53.602;11.418;2023-11-19T06:11:24;99953.00;;;8.25;100.00
3206;BME280;1615;53.602;11.418;2023-11-19T06:13:52;99976.44;;;8.44;100.00
3206;BME280;1615;53.602;11.418;2023-11-19T06:16:18;99951.31;;;8.29;100.00
3206;BME280;1615;53.602;11.418;2023-11-19T06:18:43;99957.44;;;8.53;100.00
3206;BME280;1615;53.602;11.418;2023-11-19T06:21:09;99950.56;;;8.55;100.00
3206;BME280;1615;53.602;11.418;2023-11-19T06:23:34;99973.91;;;8.80;100.00
3206;BME280;1615;53.602;11.418;2023-11-19T06:26:00;99887.81;;;8.37;100.00
3206;BME280;1615;53.602;11.418;2023-11-19T06:28:26;99959.41;;;8.66;100.00
3206;BME280;1615;53.602;11.418;2023-11-19T06:30:51;99937.06;;;8.64;100.00
3206;BME280;1615;53.602;11.418;2023-11-19T06:33:17;99966.22;;;8.82;100.00
3206;BME280;1615;53.602;11.418;2023-11-19T06:35:42;99927.94;;;8.68;100.00
3206;BME280;1615;53.602;11.418;2023-11-19T06:38:07;99902.44;;;8.59;100.00
3206;BME280;1615;53.602;11.418;2023-11-19T06:40:33;99884.00;;;8.51;100.00
3206;BME280;1615;53.602;11.418;2023-11-19T06:43:00;99957.66;;;9.02;100.00
3206;BME280;1615;53.602;11.418;2023-11-19T06:45:26;99961.59;;;9.09;100.00
3206;BME280;1615;53.602;11.418;2023-11-19T06:47:51;99906.50;;;8.89;100.00
3206;BME280;1615;53.602;11.418;2023-11-19T06:50:16;99899.81;;;8.95;100.00
3206;BME280;1615;53.602;11.418;2023-11-19T06:52:44;99949.66;;;9.32;100.00
3206;BME280;1615;53.602;11.418;2023-11-19T06:55:10;99938.72;;;9.32;100.00
3206;BME280;1615;53.602;11.418;2023-11-19T06:57:35;99926.44;;;9.30;100.00
3206;BME280;1615;53.602;11.418;2023-11-19T07:00:01;99904.69;;;9.25;100.00
3206;BME280;1615;53.602;11.418;2023-11-19T07:02:26;99918.81;;;9.40;100.00
3206;BME280;1615;53.602;11.418;2023-11-19T07:04:52;99917.41;;;9.43;100.00
3206;BME280;1615;53.602;11.418;2023-11-19T07:07:17;99929.16;;;9.57;100.00
3206;BME280;1615;53.602;11.418;2023-11-19T07:09:42;99930.75;;;9.58;100.00
3206;BME280;1615;53.602;11.418;2023-11-19T07:12:08;99932.91;;;9.61;100.00
3206;BME280;1615;53.602;11.418;2023-11-19T07:14:33;99942.63;;;9.67;100.00
3206;BME280;1615;53.602;11.418;2023-11-19T07:16:59;99940.66;;;9.67;100.00
3206;BME280;1615;53.602;11.418;2023-11-19T07:19:25;99940.88;;;9.71;100.00
3206;BME280;1615;53.602;11.418;2023-11-19T07:21:50;99925.06;;;9.68;100.00
3206;BME280;1615;53.602;11.418;2023-11-19T07:24:16;99908.47;;;9.64;100.00
3206;BME280;1615;53.602;11.418;2023-11-19T07:26:46;99908.41;;;9.78;100.00
3206;BME280;1615;53.602;11.418;2023-11-19T07:29:12;99865.50;;;9.51;100.00
3206;BME280;1615;53.602;11.418;2023-11-19T07:31:38;99936.75;;;9.95;100.00
3206;BME280;1615;53.602;11.418;2023-11-19T07:34:03;99918.91;;;9.98;100.00
3206;BME280;1615;53.602;11.418;2023-11-19T07:36:30;99863.50;;;9.79;100.00
3206;BME280;1615;53.602;11.418;2023-11-19T07:38:56;99897.19;;;10.01;100.00
3206;BME280;1615;53.602;11.418;2023-11-19T07:41:23;99917.81;;;10.21;100.00
3206;BME280;1615;53.602;11.418;2023-11-19T07:43:50;99910.72;;;10.20;100.00
3206;BME280;1615;53.602;11.418;2023-11-19T07:46:16;99814.41;;;9.60;100.00
3206;BME280;1615;53.602;11.418;2023-11-19T07:48:43;99915.38;;;10.41;100.00
3206;BME280;1615;53.602;11.418;2023-11-19T07:51:10;99896.00;;;10.38;100.00
3206;BME280;1615;53.602;11.418;2023-11-19T07:53:36;99925.94;;;10.56;100.00
3206;BME280;1615;53.602;11.418;2023-11-19T07:56:03;99702.81;;;9.27;100.00
3206;BME280;1615;53.602;11.418;2023-11-19T07:58:29;99726.56;;;9.40;100.00
3206;BME280;1615;53.602;11.418;2023-11-19T08:00:54;99789.50;;;9.84;100.00
3206;BME280;1615;53.602;11.418;2023-11-19T08:03:19;99913.91;;;10.66;100.00
3206;BME280;1615;53.602;11.418;2023-11-19T08:05:47;99930.94;;;10.85;100.00
3206;BME280;1615;53.602;11.418;2023-11-19T08:08:12;99882.41;;;10.55;100.00
3206;BME280;1615;53.602;11.418;2023-11-19T08:10:38;99935.56;;;10.76;100.00
3206;BME280;1615;53.602;11.418;2023-11-19T08:13:03;99918.56;;;10.96;100.00
3206;BME280;1615;53.602;11.418;2023-11-19T08:15:29;99902.56;;;10.89;100.00
3206;BME280;1615;53.602;11.418;2023-11-19T08:17:54;99918.13;;;11.02;100.00
3206;BME280;1615;53.602;11.418;2023-11-19T08:20:20;99915.41;;;11.11;100.00
3206;BME280;1615;53.602;11.418;2023-11-19T08:22:45;99885.22;;;11.02;100.00
3206;BME280;1615;53.602;11.418;2023-11-19T08:25:10;99906.75;;;11.26;100.00
3206;BME280;1615;53.602;11.418;2023-11-19T08:27:35;99881.06;;;11.13;100.00
3206;BME280;1615;53.602;11.418;2023-11-19T08:30:01;99896.09;;;11.33;100.00
3206;BME280;1615;53.602;11.418;2023-11-19T08:32:27;99898.03;;;11.41;100.00
3206;BME280;1615;53.602;11.418;2023-11-19T08:34:52;99904.06;;;11.51;100.00
3206;BME280;1615;53.602;11.418;2023-11-19T08:37:18;99898.91;;;11.58;100.00
3206;BME280;1615;53.602;11.418;2023-11-19T08:39:46;99774.38;;;10.95;100.00
3206;BME280;1615;53.602;11.418;2023-11-19T08:42:12;99888.16;;;11.79;100.00
3206;BME280;1615;53.602;11.418;2023-11-19T08:44:37;99876.66;;;11.77;100.00
3206;BME280;1615;53.602;11.418;2023-11-19T08:47:03;99814.47;;;11.47;100.00
3206;BME280;1615;53.602;11.418;2023-11-19T08:49:28;99896.84;;;11.98;100.00
3206;BME280;1615;53.602;11.418;2023-11-19T08:51:53;99899.75;;;12.10;100.00
3206;BME280;1615;53.602;11.418;2023-11-19T08:54:19;99840.31;;;11.80;100.00
3206;BME280;1615;53.602;11.418;2023-11-19T08:56:46;99892.16;;;12.24;100.00
3206;BME280;1615;53.602;11.418;2023-11-19T08:59:11;99913.16;;;12.45;100.00
3206;BME280;1615;53.602;11.418;2023-11-19T09:01:37;99874.53;;;12.25;100.00
3206;BME280;1615;53.602;11.418;2023-11-19T09:04:02;99894.38;;;12.47;100.00
3206;BME280;1615;53.602;11.418;2023-11-19T09:06:27;99899.50;;;12.66;100.00
3206;BME280;1615;53.602;11.418;2023-11-19T09:08:53;99904.16;;;12.74;100.00
3206;BME280;1615;53.602;11.418;2023-11-19T09:11:18;99905.41;;;12.85;100.00
3206;BME280;1615;53.602;11.418;2023-11-19T09:13:43;99879.88;;;12.84;100.00
3206;BME280;1615;53.602;11.418;2023-11-19T09:16:12;99880.81;;;12.88;100.00
3206;BME280;1615;53.602;11.418;2023-11-19T09:18:37;99892.03;;;13.21;100.00
3206;BME280;1615;53.602;11.418;2023-11-19T09:21:03;99900.03;;;13.34;100.00
3206;BME280;1615;53.602;11.418;2023-11-19T09:23:28;99883.84;;;13.33;100.00
3206;BME280;1615;53.602;11.418;2023-11-19T09:25:57;99887.41;;;13.33;100.00
3206;BME280;1615;53.602;11.418;2023-11-19T09:28:23;99893.56;;;13.39;100.00
3206;BME280;1615;53.602;11.418;2023-11-19T09:30:48;99899.59;;;13.53;100.00
3206;BME280;1615;53.602;11.418;2023-11-19T09:33:13;99882.34;;;13.44;100.00
3206;BME280;1615;53.602;11.418;2023-11-19T09:35:39;99872.19;;;13.36;100.00
3206;BME280;1615;53.602;11.418;2023-11-19T09:38:04;99873.34;;;13.35;100.00
3206;BME280;1615;53.602;11.418;2023-11-19T09:40:30;99904.13;;;13.57;100.00
3206;BME280;1615;53.602;11.418;2023-11-19T09:42:56;99908.91;;;13.69;100.00
3206;BME280;1615;53.602;11.418;2023-11-19T09:45:26;99900.44;;;13.74;100.00
3206;BME280;1615;53.602;11.418;2023-11-19T09:47:53;99903.94;;;13.83;100.00
3206;BME280;1615;53.602;11.418;2023-11-19T09:50:19;99914.38;;;13.98;100.00
3206;BME280;1615;53.602;11.418;2023-11-19T09:52:46;99901.78;;;14.09;100.00
3206;BME280;1615;53.602;11.418;2023-11-19T09:55:11;99887.28;;;14.00;100.00
3206;BME280;1615;53.602;11.418;2023-11-19T09:57:40;99917.59;;;14.20;100.00
3206;BME280;1615;53.602;11.418;2023-11-19T10:00:07;99910.13;;;14.21;100.00
3206;BME280;1615;53.602;11.418;2023-11-19T10:02:35;99913.63;;;14.30;100.00
3206;BME280;1615;53.602;11.418;2023-11-19T10:05:04;99917.91;;;14.39;100.00
3206;BME280;1615;53.602;11.418;2023-11-19T10:07:31;99917.38;;;14.46;100.00
3206;BME280;1615;53.602;11.418;2023-11-19T10:10:00;99893.75;;;14.36;100.00
3206;BME280;1615;53.602;11.418;2023-11-19T10:12:27;99917.81;;;14.48;100.00
3206;BME280;1615;53.602;11.418;2023-11-19T10:14:56;99932.03;;;14.38;100.00
3206;BME280;1615;53.602;11.418;2023-11-19T10:17:33;99843.56;;;14.31;100.00
3206;BME280;1615;53.602;11.418;2023-11-19T10:19:59;99897.09;;;14.74;100.00
3206;BME280;1615;53.602;11.418;2023-11-19T10:22:25;99909.88;;;14.79;100.00
3206;BME280;1615;53.602;11.418;2023-11-19T10:24:51;99890.22;;;14.80;100.00
3206;BME280;1615;53.602;11.418;2023-11-19T10:27:17;99894.38;;;14.86;100.00
3206;BME280;1615;53.602;11.418;2023-11-19T10:29:46;99900.22;;;14.97;100.00
3206;BME280;1615;53.602;11.418;2023-11-19T10:32:12;99900.72;;;14.99;100.00
3206;BME280;1615;53.602;11.418;2023-11-19T10:34:39;99900.72;;;14.99;100.00
3206;BME280;1615;53.602;11.418;2023-11-19T10:37:05;99902.09;;;15.05;100.00
3206;BME280;1615;53.602;11.418;2023-11-19T10:39:52;99908.78;;;15.04;100.00
3206;BME280;1615;53.602;11.418;2023-11-19T10:42:21;99868.50;;;14.79;100.00
3206;BME280;1615;53.602;11.418;2023-11-19T10:44:46;99884.81;;;14.84;100.00
3206;BME280;1615;53.602;11.418;2023-11-19T10:47:14;99853.53;;;14.68;100.00
3206;BME280;1615;53.602;11.418;2023-11-19T10:49:39;99868.50;;;14.79;100.00
3206;BME280;1615;53.602;11.418;2023-11-19T10:52:08;99889.91;;;15.06;100.00
3206;BME280;1615;53.602;11.418;2023-11-19T10:54:34;99886.91;;;15.11;100.00
3206;BME280;1615;53.602;11.418;2023-11-19T10:57:01;99886.81;;;15.19;100.00
3206;BME280;1615;53.602;11.418;2023-11-19T10:59:31;99894.75;;;15.21;100.00
3206;BME280;1615;53.602;11.418;2023-11-19T11:02:00;99866.78;;;15.10;100.00
3206;BME280;1615;53.602;11.418;2023-11-19T11:04:30;99889.44;;;15.28;100.00
3206;BME280;1615;53.602;11.418;2023-11-19T11:06:58;99777.84;;;14.45;100.00
3206;BME280;1615;53.602;11.418;2023-11-19T11:09:26;99869.09;;;15.08;100.00
3206;BME280;1615;53.602;11.418;2023-11-19T11:11:54;99901.50;;;15.11;100.00
3206;BME280;1615;53.602;11.418;2023-11-19T11:14:21;99904.88;;;15.17;100.00
3206;BME280;1615;53.602;11.418;2023-11-19T11:16:48;99904.16;;;15.08;100.00
3206;BME280;1615;53.602;11.418;2023-11-19T11:19:16;99908.53;;;15.09;100.00
3206;BME280;1615;53.602;11.418;2023-11-19T11:21:44;99909.91;;;15.03;100.00
3206;BME280;1615;53.602;11.418;2023-11-19T11:25:11;99888.06;;;15.10;100.00
3206;BME280;1615;53.602;11.418;2023-11-19T11:27:36;99908.78;;;15.04;100.00
3206;BME280;1615;53.602;11.418;2023-11-19T11:35:57;99904.63;;;15.22;100.00
3206;BME280;1615;53.602;11.418;2023-11-19T11:38:28;99810.88;;;14.65;100.00
3206;BME280;1615;53.602;11.418;2023-11-19T11:41:20;99914.41;;;15.31;100.00
3206;BME280;1615;53.602;11.418;2023-11-19T11:43:50;99910.72;;;15.27;100.00
3206;BME280;1615;53.602;11.418;2023-11-19T11:49:05;99849.16;;;14.79;100.00
3206;BME280;1615;53.602;11.418;2023-11-19T11:54:14;99942.66;;;15.49;100.00
3206;BME280;1615;53.602;11.418;2023-11-19T11:57:03;99906.16;;;15.55;100.00
3206;BME280;1615;53.602;11.418;2023-11-19T11:59:52;99909.94;;;15.51;100.00
3206;BME280;1615;53.602;11.418;2023-11-19T12:02:20;99905.56;;;15.62;100.00
3206;BME280;1615;53.602;11.418;2023-11-19T12:04:48;99913.16;;;15.65;100.00
3206;BME280;1615;53.602;11.418;2023-11-19T12:07:24;99930.19;;;15.67;100.00
3206;BME280;1615;53.602;11.418;2023-11-19T12:10:08;99878.28;;;15.24;100.00
3206;BME280;1615;53.602;11.418;2023-11-19T12:12:34;99862.50;;;15.25;100.00
3206;BME280;1615;53.602;11.418;2023-11-19T12:15:05;99915.25;;;15.44;100.00
3206;BME280;1615;53.602;11.418;2023-11-19T12:20:00;99896.81;;;15.12;100.00
3206;BME280;1615;53.602;11.418;2023-11-19T12:22:25;99895.66;;;15.01;100.00
3206;BME280;1615;53.602;11.418;2023-11-19T12:24:55;99896.31;;;14.98;100.00
3206;BME280;1615;53.602;11.418;2023-11-19T12:27:21;99901.72;;;15.06;100.00
3206;BME280;1615;53.602;11.418;2023-11-19T12:29:48;99888.03;;;14.86;100.00
3206;BME280;1615;53.602;11.418;2023-11-19T12:32:13;99918.41;;;14.98;100.00
3206;BME280;1615;53.602;11.418;2023-11-19T12:34:39;99895.84;;;14.84;100.00
3206;BME280;1615;53.602;11.418;2023-11-19T12:37:05;99916.44;;;14.86;100.00
3206;BME280;1615;53.602;11.418;2023-11-19T12:39:31;99819.19;;;14.33;100.00
3206;BME280;1615;53.602;11.418;2023-11-19T12:41:57;99906.78;;;14.80;100.00
3206;BME280;1615;53.602;11.418;2023-11-19T12:44:25;99859.56;;;14.49;100.00
3206;BME280;1615;53.602;11.418;2023-11-19T12:47:00;99923.78;;;14.70;100.00
3206;BME280;1615;53.602;11.418;2023-11-19T12:49:26;99906.03;;;14.59;100.00
3206;BME280;1615;53.602;11.418;2023-11-19T12:51:52;99904.34;;;14.79;100.00
3206;BME280;1615;53.602;11.418;2023-11-19T12:54:17;99947.59;;;14.87;100.00
3206;BME280;1615;53.602;11.418;2023-11-19T12:56:52;99918.94;;;14.79;100.00
3206;BME280;1615;53.602;11.418;2023-11-19T12:59:19;99906.63;;;14.77;100.00
3206;BME280;1615;53.602;11.418;2023-11-19T13:01:57;99916.06;;;14.76;100.00
3206;BME280;1615;53.602;11.418;2023-11-19T13:04:23;99930.59;;;14.97;100.00
3206;BME280;1615;53.602;11.418;2023-11-19T13:06:52;99917.13;;;14.95;100.00
3206;BME280;1615;53.602;11.418;2023-11-19T13:09:36;99926.25;;;15.08;100.00
3206;BME280;1615;53.602;11.418;2023-11-19T13:12:12;99926.94;;;15.17;100.00
3206;BME280;1615;53.602;11.418;2023-11-19T13:14:38;99916.13;;;15.00;100.00
3206;BME280;1615;53.602;11.418;2023-11-19T13:17:03;99898.84;;;14.79;100.00